Startpagina
METAR-TAF:

METAR-TAF

Vliegvelden :

Mannheim, Duitsland

breedte: 49-28-21N, lengte: 008-30-56E, hoogte: 100 m

Actueel weer

Dit bericht is 2 uur en het 51 minuten geleden gemaakt, om 18:20 UTC
Wind 13 kt uit het zuidwesten met uitschieters tot 25 kt, variërend tussen het zuiden en het westzuidwesten
Temperatuur 14°C
Vochtigheid 67%
Druk 1018 hPa
Zicht 10 km of meer
Geheel bewolkt op 2800 ft

METAR: EDFM 231820Z 22013G25KT 190V250 9999 OVC028 14/08 Q1018

Tijdstip: 22:11 (21:11 UTC)


TAF: ontbreekt

Waarnemingen en weersverwachtingen van meer dan 4000 vliegvelden (METAR en TAF).

De beschikbare stations zijn de gele en rode punten op de kaart.

Ga met uw muis naar het station om de naam te zien.

Klik dan om waarnemingen en weersverwachtingen te zien.

kaart wijzigen: klik op de groene knoppen met een zwart kruis om in te zoomen, op de groene knop met een streepje om uit te zoomen of op de groene pijlen voor aangrenzende kaarten.


METAR-TAF: